Time;durP1;ratioP1;P1;durP2;ratioP2;P2;SDS_P1;SDS_P2;PMS_P1;PMS_P2;Temp;Humidity;BMP_temperature;BMP_pressure;BME280_temperature;BME280_humidity;BME280_pressure;Samples;Min_cycle;Max_cycle;Signal;HPM_P1;HPM_P2
2022/04/15 00:01:48;;;;;;;3.33;0.88;;;;;;;23.42;50.23;102479.81;5032619;28;20351;-72
2022/04/15 00:04:13;;;;;;;6.00;0.73;;;;;;;23.46;50.87;102474.84;5032499;28;20028;-72
2022/04/15 00:06:38;;;;;;;5.00;1.05;;;;;;;23.49;50.94;102485.47;5032506;28;20362;-72
2022/04/15 00:09:04;;;;;;;4.32;0.73;;;;;;;23.53;51.26;102484.16;5041927;28;20013;-69
2022/04/15 00:11:31;;;;;;;1.85;0.40;;;;;;;23.51;50.95;102488.91;5057314;28;20021;-70
2022/04/15 00:13:56;;;;;;;5.88;0.98;;;;;;;23.49;49.96;102485.47;5036749;28;20072;-72
2022/04/15 00:16:22;;;;;;;3.85;0.60;;;;;;;23.50;50.67;102489.94;5032324;28;20021;-72
2022/04/15 00:18:47;;;;;;;4.35;0.65;;;;;;;23.49;50.53;102496.47;5031199;28;20523;-72
2022/04/15 00:21:12;;;;;;;3.85;0.70;;;;;;;23.50;50.42;102497.31;5032376;28;20109;-72
2022/04/15 00:23:38;;;;;;;6.43;1.58;;;;;;;23.50;50.43;102506.41;5032596;28;20033;-72
2022/04/15 00:26:04;;;;;;;4.10;0.90;;;;;;;23.52;50.36;102496.16;5032455;28;20420;-72
2022/04/15 00:28:29;;;;;;;3.28;0.55;;;;;;;23.54;50.47;102504.22;5032101;28;20037;-71
2022/04/15 00:30:55;;;;;;;3.83;0.88;;;;;;;23.52;49.82;102498.91;5032351;28;20021;-72
2022/04/15 00:33:23;;;;;;;2.67;0.73;;;;;;;23.49;50.30;102501.94;5032106;28;20461;-72
2022/04/15 00:35:49;;;;;;;8.52;1.20;;;;;;;23.51;50.96;102504.53;5032466;28;20084;-72
2022/04/15 00:38:14;;;;;;;3.10;1.02;;;;;;;23.50;49.21;102503.66;5032145;28;20026;-72
2022/04/15 00:40:40;;;;;;;3.58;1.20;;;;;;;23.49;49.81;102507.44;5032211;28;20030;-72
2022/04/15 00:43:05;;;;;;;4.15;1.00;;;;;;;23.56;50.00;102507.66;5043801;28;20014;-72
2022/04/15 00:45:30;;;;;;;2.65;0.35;;;;;;;23.60;49.17;102509.94;5036130;28;20036;-71
2022/04/15 00:47:58;;;;;;;3.83;0.68;;;;;;;23.60;49.96;102512.66;5032173;28;20446;-72
2022/04/15 00:50:26;;;;;;;1.35;0.40;;;;;;;23.62;49.78;102513.38;5031883;28;20041;-71
2022/04/15 00:52:54;;;;;;;3.67;1.02;;;;;;;23.59;51.02;102518.34;5031891;28;20060;-71
2022/04/15 00:55:21;;;;;;;4.05;0.70;;;;;;;23.55;51.47;102517.78;5031585;28;20483;-71
2022/04/15 00:57:51;;;;;;;2.00;0.65;;;;;;;23.51;52.23;102521.00;5035848;28;20469;-71
2022/04/15 01:00:18;;;;;;;2.45;0.38;;;;;;;23.53;52.49;102528.06;5035660;28;20504;-71
2022/04/15 01:02:44;;;;;;;2.28;0.52;;;;;;;23.55;52.52;102528.75;5034427;28;20032;-71
2022/04/15 01:05:11;;;;;;;4.00;0.77;;;;;;;23.56;52.11;102525.00;5034332;28;20043;-71
2022/04/15 01:07:39;;;;;;;0.98;0.40;;;;;;;23.57;51.90;102537.72;5034302;28;20025;-72
2022/04/15 01:10:11;;;;;;;3.50;0.50;;;;;;;23.55;50.80;102539.75;5035696;28;20025;-72
2022/04/15 01:12:39;;;;;;;1.60;0.35;;;;;;;23.45;52.04;102544.50;5035426;28;20030;-72
2022/04/15 01:15:08;;;;;;;3.85;0.77;;;;;;;23.37;50.61;102536.22;5035553;28;20029;-71
2022/04/15 01:17:34;;;;;;;1.50;0.30;;;;;;;23.29;50.65;102549.91;5035385;28;20021;-72
2022/04/15 01:20:01;;;;;;;2.95;0.63;;;;;;;23.19;50.66;102549.16;5035433;28;20522;-72
2022/04/15 01:22:32;;;;;;;1.58;0.45;;;;;;;23.19;49.59;102549.16;5035593;28;20025;-72
2022/04/15 01:24:57;;;;;;;3.38;0.50;;;;;;;23.11;50.18;102553.56;5035302;28;20451;-72
2022/04/15 01:27:27;;;;;;;2.33;0.40;;;;;;;23.07;50.15;102552.19;5035111;28;20113;-72
2022/04/15 01:29:52;;;;;;;3.15;0.50;;;;;;;23.14;49.57;102567.97;5034008;28;20053;-72
2022/04/15 01:32:18;;;;;;;1.77;0.43;;;;;;;23.07;50.19;102563.16;5045232;28;20037;-72
2022/04/15 01:34:43;;;;;;;0.50;0.22;;;;;;;23.03;50.05;102572.72;5033807;28;20112;-72
2022/04/15 01:37:09;;;;;;;3.85;0.75;;;;;;;23.06;50.52;102572.41;5035131;28;20461;-72
2022/04/15 01:39:35;;;;;;;3.08;0.80;;;;;;;23.06;50.99;102571.53;5034971;28;20079;-72
2022/04/15 01:42:01;;;;;;;1.95;0.55;;;;;;;23.01;50.00;102574.78;5035081;28;20234;-71
2022/04/15 01:44:26;;;;;;;2.03;0.80;;;;;;;23.05;49.57;102575.31;5034781;28;20053;-73
2022/04/15 01:46:52;;;;;;;1.15;0.22;;;;;;;23.00;50.04;102578.50;5036295;28;20064;-68
2022/04/15 01:49:17;;;;;;;2.10;0.20;;;;;;;23.03;49.11;102580.97;5057283;28;20026;-67
2022/04/15 01:51:42;;;;;;;0.80;0.43;;;;;;;23.03;49.84;102580.09;5048160;28;20049;-70
2022/04/15 01:54:08;;;;;;;1.60;0.40;;;;;;;22.99;49.44;102587.78;5034647;28;20029;-70
2022/04/15 01:56:33;;;;;;;1.38;0.28;;;;;;;22.99;49.70;102593.25;5034589;28;20025;-70
2022/04/15 01:58:58;;;;;;;0.98;0.20;;;;;;;22.99;49.61;102593.25;5034622;28;20052;-70
2022/04/15 02:01:24;;;;;;;0.85;0.30;;;;;;;23.01;49.98;102591.25;5034566;28;20022;-71
2022/04/15 02:03:49;;;;;;;1.17;0.30;;;;;;;22.97;50.49;102595.28;5033620;28;20039;-70
2022/04/15 02:06:14;;;;;;;2.47;0.35;;;;;;;22.97;49.46;102595.28;5034134;28;20030;-70
2022/04/15 02:08:40;;;;;;;0.70;0.10;;;;;;;22.94;50.06;102601.13;5034459;28;20029;-70
2022/04/15 02:11:06;;;;;;;0.73;0.15;;;;;;;22.98;49.56;102594.28;5034509;28;20465;-70
2022/04/15 02:13:31;;;;;;;2.03;0.38;;;;;;;23.01;49.24;102602.22;5034298;28;20025;-69
2022/04/15 02:15:56;;;;;;;0.50;0.25;;;;;;;22.94;49.89;102606.59;5034375;28;20373;-72
2022/04/15 02:18:21;;;;;;;2.05;0.32;;;;;;;22.94;49.87;102601.13;5033171;28;20033;-72
2022/04/15 02:20:47;;;;;;;1.75;0.38;;;;;;;22.94;49.97;102612.09;5034365;28;20457;-69
2022/04/15 02:23:12;;;;;;;1.33;0.40;;;;;;;22.98;49.94;102613.47;5054933;28;20103;-67
2022/04/15 02:25:37;;;;;;;2.17;0.43;;;;;;;22.97;50.19;102610.91;5052365;28;20002;-67
2022/04/15 02:28:03;;;;;;;1.00;0.40;;;;;;;22.99;49.28;102608.84;5036656;28;20468;-70
2022/04/15 02:30:28;;;;;;;2.00;0.47;;;;;;;23.02;49.41;102608.56;5033801;28;20064;-69
2022/04/15 02:32:53;;;;;;;1.65;0.32;;;;;;;22.98;49.94;102612.63;5034116;28;20029;-70
2022/04/15 02:35:19;;;;;;;2.05;0.30;;;;;;;22.99;50.08;102617.94;5033677;28;20116;-70
2022/04/15 02:37:44;;;;;;;2.30;0.32;;;;;;;22.96;50.39;102623.75;5034184;28;20029;-70
2022/04/15 02:40:09;;;;;;;2.78;0.50;;;;;;;22.98;50.15;102627.19;5033931;28;20029;-70
2022/04/15 02:42:35;;;;;;;1.75;0.40;;;;;;;23.04;49.30;102629.31;5033681;28;20025;-70
2022/04/15 02:45:03;;;;;;;1.48;0.22;;;;;;;23.04;49.94;102639.44;5032660;28;20412;-70
2022/04/15 02:47:29;;;;;;;0.32;0.17;;;;;;;23.08;49.74;102635.34;5033559;28;20032;-70
2022/04/15 02:49:54;;;;;;;4.57;0.85;;;;;;;23.11;50.25;102635.88;5033812;28;20025;-69
2022/04/15 02:52:20;;;;;;;1.08;0.57;;;;;;;23.10;49.28;102639.63;5033274;28;20546;-69
2022/04/15 02:54:45;;;;;;;3.25;0.80;;;;;;;23.13;49.90;102641.19;5033544;28;20122;-72
2022/04/15 02:57:10;;;;;;;4.00;0.73;;;;;;;23.12;49.35;102642.22;5033439;28;20413;-72
2022/04/15 02:59:36;;;;;;;2.20;0.47;;;;;;;23.14;49.41;102634.69;5052797;28;20097;-69
2022/04/15 03:02:01;;;;;;;3.20;0.50;;;;;;;23.11;50.28;102559.06;5054631;28;20076;-72
2022/04/15 03:04:26;;;;;;;2.85;0.70;;;;;;;23.14;49.66;102563.34;5033348;28;20515;-71
2022/04/15 03:06:51;;;;;;;0.65;0.17;;;;;;;23.17;49.95;102552.03;5033438;28;20461;-70
2022/04/15 03:09:17;;;;;;;1.02;0.47;;;;;;;23.21;50.16;102704.38;5033224;28;20049;-70
2022/04/15 03:11:42;;;;;;;2.75;0.73;;;;;;;23.20;50.15;102641.44;5033298;28;20104;-70
2022/04/15 03:14:07;;;;;;;1.80;0.85;;;;;;;23.19;48.83;102631.47;5048391;28;20083;-70
2022/04/15 03:16:33;;;;;;;0.77;0.43;;;;;;;23.16;49.41;102637.25;5033102;28;20021;-70
2022/04/15 03:18:59;;;;;;;2.38;0.55;;;;;;;23.18;49.73;102625.13;5032694;28;20036;-72
2022/04/15 03:21:24;;;;;;;2.65;0.75;;;;;;;23.17;50.09;102639.84;5032936;28;20099;-71
2022/04/15 03:23:50;;;;;;;2.72;0.55;;;;;;;23.17;49.62;102639.00;5031830;28;20033;-72
2022/04/15 03:26:15;;;;;;;2.75;0.57;;;;;;;23.20;50.15;102652.41;5032977;28;20036;-71
2022/04/15 03:28:40;;;;;;;4.32;0.70;;;;;;;23.23;49.89;102649.34;5033017;28;20163;-72
2022/04/15 03:31:06;;;;;;;1.52;0.30;;;;;;;23.28;49.63;102652.47;5033040;28;20469;-71
2022/04/15 03:33:32;;;;;;;3.33;0.73;;;;;;;23.32;49.51;102648.34;5036371;28;20026;-72
2022/04/15 03:35:57;;;;;;;1.70;0.22;;;;;;;23.36;50.26;102660.75;5032875;28;20028;-72
2022/04/15 03:38:23;;;;;;;3.40;0.60;;;;;;;23.39;50.40;102660.44;5032661;28;20025;-72
2022/04/15 03:40:49;;;;;;;3.22;0.60;;;;;;;23.44;49.65;102674.53;5032778;28;20493;-72
2022/04/15 03:43:14;;;;;;;1.67;0.40;;;;;;;23.45;51.64;102668.00;5032680;28;20105;-71
2022/04/15 03:45:40;;;;;;;2.28;0.45;;;;;;;23.46;51.07;102672.47;5032983;28;20484;-71
2022/04/15 03:48:05;;;;;;;3.35;0.52;;;;;;;23.53;51.17;102676.31;5032729;28;20436;-72
2022/04/15 03:50:30;;;;;;;1.70;0.40;;;;;;;23.52;51.00;102681.97;5031289;28;20021;-72
2022/04/15 03:52:56;;;;;;;2.35;0.50;;;;;;;23.57;51.17;102685.97;5031343;28;20045;-72
2022/04/15 03:55:24;;;;;;;2.58;0.52;;;;;;;23.56;50.48;102692.47;5036178;28;20033;-72
2022/04/15 03:57:49;;;;;;;1.08;0.30;;;;;;;23.59;50.53;102689.41;5031262;28;20060;-72
2022/04/15 04:00:17;;;;;;;2.17;0.70;;;;;;;23.62;51.62;102693.72;5040817;28;20021;-71
2022/04/15 04:02:44;;;;;;;1.27;0.30;;;;;;;23.75;51.24;102696.03;5045616;28;20037;-70
2022/04/15 04:05:09;;;;;;;1.60;0.30;;;;;;;23.86;50.23;102701.25;5032561;28;20072;-72
2022/04/15 04:07:34;;;;;;;2.38;0.38;;;;;;;23.96;49.92;102702.84;5032395;28;20029;-71
2022/04/15 04:10:00;;;;;;;4.35;0.75;;;;;;;24.05;50.82;102700.16;5032879;28;20028;-71
2022/04/15 04:12:25;;;;;;;0.70;0.38;;;;;;;24.11;50.25;102699.47;5032256;28;20341;-72
2022/04/15 04:14:50;;;;;;;1.85;0.40;;;;;;;24.14;50.15;102716.47;5031171;28;20041;-71
2022/04/15 04:17:16;;;;;;;1.40;0.45;;;;;;;24.18;48.99;102709.63;5032326;28;20469;-72
2022/04/15 04:19:41;;;;;;;3.80;1.00;;;;;;;24.19;48.76;102718.75;5032359;28;20026;-71
2022/04/15 04:22:06;;;;;;;1.25;0.20;;;;;;;24.25;49.32;102721.69;5032404;28;20052;-72
2022/04/15 04:24:32;;;;;;;1.75;0.68;;;;;;;24.25;49.63;102724.44;5032185;28;20108;-72
2022/04/15 04:26:57;;;;;;;0.88;0.35;;;;;;;24.30;49.09;102733.06;5032457;28;20116;-72
2022/04/15 04:29:22;;;;;;;2.08;0.63;;;;;;;24.32;48.80;102718.31;5033347;28;20271;-71
2022/04/15 04:31:47;;;;;;;0.98;0.30;;;;;;;24.38;49.47;102728.66;5034947;28;20033;-71
2022/04/15 04:34:13;;;;;;;1.83;0.38;;;;;;;24.40;47.98;102737.59;5036222;28;20045;-73
2022/04/15 04:36:38;;;;;;;1.33;0.20;;;;;;;24.40;47.62;102738.44;5034904;28;20041;-72
2022/04/15 04:39:08;;;;;;;1.45;0.30;;;;;;;24.42;48.05;102738.28;5044832;28;20116;-71
2022/04/15 04:41:34;;;;;;;2.72;0.20;;;;;;;24.42;47.46;102735.53;5036012;28;20017;-72
2022/04/15 04:43:59;;;;;;;0.77;0.50;;;;;;;24.48;48.14;102740.34;5036164;28;20029;-72
2022/04/15 04:46:24;;;;;;;2.58;0.32;;;;;;;24.44;47.89;102741.72;5035903;28;20029;-73
2022/04/15 04:48:50;;;;;;;1.38;0.20;;;;;;;24.50;47.86;102744.66;5035966;28;20040;-72
2022/04/15 04:51:15;;;;;;;0.30;0.13;;;;;;;24.51;47.33;102748.25;5035843;28;20021;-72
2022/04/15 04:53:40;;;;;;;1.95;0.40;;;;;;;24.51;48.18;102751.00;5035772;28;20404;-72
2022/04/15 04:56:06;;;;;;;1.92;0.32;;;;;;;24.55;47.54;102757.94;5034715;28;20384;-72
2022/04/15 04:58:31;;;;;;;0.75;0.20;;;;;;;24.58;47.70;102755.69;5035614;28;20484;-72
2022/04/15 05:00:56;;;;;;;1.20;0.13;;;;;;;24.56;47.59;102748.66;5035856;28;20036;-72
2022/04/15 05:03:21;;;;;;;3.55;0.70;;;;;;;24.61;48.36;102757.25;5055132;28;20006;-71
2022/04/15 05:05:48;;;;;;;2.55;0.73;;;;;;;24.59;45.84;102762.06;5060438;28;20056;-72
2022/04/15 05:08:13;;;;;;;1.55;0.20;;;;;;;24.62;46.71;102758.97;5035687;28;20030;-72
2022/04/15 05:10:39;;;;;;;1.13;0.15;;;;;;;24.64;47.43;102767.91;5035482;28;20539;-72
2022/04/15 05:13:04;;;;;;;1.65;0.30;;;;;;;24.62;47.86;102767.22;5034272;28;20453;-72
2022/04/15 05:15:29;;;;;;;1.35;0.30;;;;;;;24.65;47.43;102772.38;5035359;28;20108;-72
2022/04/15 05:17:55;;;;;;;3.25;0.75;;;;;;;24.69;48.05;102776.53;5035477;28;20034;-71
2022/04/15 05:20:20;;;;;;;0.90;0.20;;;;;;;24.65;47.19;102775.13;5035277;28;20033;-72
2022/04/15 05:22:45;;;;;;;1.90;0.30;;;;;;;24.68;47.79;102774.78;5040232;28;20056;-72
2022/04/15 05:25:10;;;;;;;1.13;0.40;;;;;;;24.69;46.36;102786.66;5045915;28;20372;-72
2022/04/15 05:27:36;;;;;;;1.00;0.28;;;;;;;24.67;47.70;102800.56;5035799;28;20100;-72
2022/04/15 05:30:03;;;;;;;0.63;0.20;;;;;;;24.70;47.30;102800.25;5035423;28;20362;-72
2022/04/15 05:32:28;;;;;;;1.75;0.38;;;;;;;24.72;46.62;102809.22;5035200;28;20358;-72
2022/04/15 05:34:53;;;;;;;2.15;0.28;;;;;;;24.74;47.13;102807.16;5035359;28;20133;-70
2022/04/15 05:37:18;;;;;;;1.20;0.20;;;;;;;24.72;46.39;102811.97;5034959;28;20052;-72
2022/04/15 05:39:44;;;;;;;0.80;0.25;;;;;;;24.72;46.52;102822.97;5035061;28;20029;-72
2022/04/15 05:42:09;;;;;;;1.13;0.10;;;;;;;24.75;45.37;102819.88;5034300;28;20246;-71
2022/04/15 05:44:34;;;;;;;0.57;0.10;;;;;;;24.73;47.21;102837.56;5034861;28;20017;-72
2022/04/15 05:46:59;;;;;;;2.20;0.32;;;;;;;24.75;47.97;102830.88;5035008;28;20025;-72
2022/04/15 05:49:25;;;;;;;1.58;0.40;;;;;;;24.78;47.20;102835.19;5033479;28;20025;-72
2022/04/15 05:51:50;;;;;;;2.05;0.28;;;;;;;24.73;47.08;102849.44;5033414;28;20374;-72
2022/04/15 05:54:15;;;;;;;1.45;0.30;;;;;;;24.77;46.71;102844.47;5033674;28;20029;-72
2022/04/15 05:56:41;;;;;;;1.25;0.20;;;;;;;24.78;46.92;102852.53;5034654;28;20017;-72
2022/04/15 05:59:07;;;;;;;3.00;0.32;;;;;;;24.80;46.65;102855.97;5034650;28;20033;-73
2022/04/15 06:01:32;;;;;;;2.83;0.40;;;;;;;24.81;46.69;102863.22;5034539;28;20064;-71
2022/04/15 06:03:58;;;;;;;1.50;0.45;;;;;;;24.83;46.72;102865.78;5034706;28;20029;-73
2022/04/15 06:06:23;;;;;;;2.15;0.38;;;;;;;24.80;46.96;102872.50;5034488;28;20033;-71
2022/04/15 06:08:48;;;;;;;0.95;0.17;;;;;;;24.81;45.94;102868.72;5045083;28;20100;-70
2022/04/15 06:11:14;;;;;;;0.82;0.25;;;;;;;24.80;46.29;102879.88;5034416;28;20032;-70
2022/04/15 06:13:42;;;;;;;0.63;0.13;;;;;;;24.84;46.10;102895.88;5034432;28;20026;-72
2022/04/15 06:16:09;;;;;;;0.68;0.10;;;;;;;24.81;46.50;102893.47;5034328;28;20041;-72
2022/04/15 06:18:36;;;;;;;2.22;0.40;;;;;;;24.85;46.93;102903.09;5034203;28;20187;-72
2022/04/15 06:21:02;;;;;;;0.65;0.32;;;;;;;24.83;45.51;102905.16;5034332;28;20022;-72
2022/04/15 06:23:27;;;;;;;0.95;0.20;;;;;;;24.87;46.07;102903.84;5034104;28;20108;-72
2022/04/15 06:25:53;;;;;;;1.58;0.60;;;;;;;24.86;46.37;102910.38;5033197;28;20148;-73
2022/04/15 06:28:21;;;;;;;1.13;0.20;;;;;;;24.87;46.52;102901.09;5034084;28;20026;-71
2022/04/15 06:30:47;;;;;;;1.52;0.20;;;;;;;24.85;46.32;102903.09;5034121;28;20032;-70
2022/04/15 06:33:15;;;;;;;0.35;0.10;;;;;;;24.83;46.65;102921.66;5044213;28;20025;-70
2022/04/15 06:35:40;;;;;;;1.15;0.10;;;;;;;24.89;47.38;102926.53;5033863;28;20032;-70
2022/04/15 06:38:05;;;;;;;0.40;0.10;;;;;;;24.86;45.99;102926.00;5034021;28;20100;-70
2022/04/15 06:40:31;;;;;;;0.93;0.08;;;;;;;24.88;46.00;102924.81;5033780;28;20508;-71
2022/04/15 06:42:56;;;;;;;0.47;0.10;;;;;;;24.87;45.69;102927.72;5033972;28;20051;-70
2022/04/15 06:45:21;;;;;;;0.05;0.00;;;;;;;24.88;45.64;102930.31;5033711;28;20022;-71
2022/04/15 06:47:47;;;;;;;0.60;0.10;;;;;;;24.88;45.76;102930.31;5033830;28;20491;-72
2022/04/15 06:50:12;;;;;;;0.60;0.00;;;;;;;24.87;44.69;102928.59;5033722;28;20424;-71
2022/04/15 06:52:37;;;;;;;1.05;0.20;;;;;;;24.86;46.20;102926.00;5038201;28;20049;-70
2022/04/15 06:55:04;;;;;;;0.52;0.10;;;;;;;24.88;46.64;102929.44;5033686;28;20029;-70
2022/04/15 06:57:31;;;;;;;0.20;0.10;;;;;;;24.85;46.21;102927.00;5033322;28;20527;-70
2022/04/15 06:59:57;;;;;;;0.85;0.10;;;;;;;24.86;46.42;102932.38;5033579;28;20025;-70
2022/04/15 07:02:22;;;;;;;0.68;0.10;;;;;;;24.89;44.76;102929.28;5050992;28;20055;-69
2022/04/15 07:04:48;;;;;;;0.75;0.10;;;;;;;24.88;46.14;102935.81;5054107;28;20041;-69
2022/04/15 07:07:13;;;;;;;0.77;0.10;;;;;;;24.89;46.71;102937.53;5033526;28;20021;-70
2022/04/15 07:09:38;;;;;;;1.00;0.17;;;;;;;24.90;46.19;102932.91;5033274;28;20025;-70
2022/04/15 07:12:04;;;;;;;0.85;0.10;;;;;;;24.88;46.88;102935.81;5033618;28;20037;-73
2022/04/15 07:14:30;;;;;;;0.65;0.20;;;;;;;24.89;45.74;102937.53;5033326;28;20449;-70
2022/04/15 07:16:55;;;;;;;0.60;0.20;;;;;;;24.90;46.79;102950.28;5033298;28;20027;-70
2022/04/15 07:19:20;;;;;;;0.80;0.10;;;;;;;24.88;46.61;102951.47;5032932;28;20043;-70
2022/04/15 07:21:45;;;;;;;0.20;0.10;;;;;;;24.90;46.77;102953.03;5033234;28;20025;-70
2022/04/15 07:24:11;;;;;;;0.55;0.20;;;;;;;24.90;46.79;102950.28;5033051;28;20518;-70
2022/04/15 07:26:37;;;;;;;0.55;0.10;;;;;;;24.89;45.30;102945.78;5033004;28;20437;-69
2022/04/15 07:29:03;;;;;;;0.30;0.17;;;;;;;24.89;46.08;102947.69;5037234;28;20033;-70
2022/04/15 07:31:28;;;;;;;0.88;0.10;;;;;;;24.88;47.07;102949.56;5044533;28;20078;-70
2022/04/15 07:33:53;;;;;;;1.13;0.20;;;;;;;24.92;45.91;102952.84;5033022;28;20049;-70
2022/04/15 07:39:00;;;;;;;0.75;0.10;;;;;;;24.92;47.06;102946.50;5033297;28;20029;-69
2022/04/15 07:41:25;;;;;;;1.52;0.13;;;;;;;24.88;47.19;102957.81;5032911;28;20108;-70
2022/04/15 07:43:50;;;;;;;0.60;0.13;;;;;;;24.90;46.84;102953.03;5033103;28;20147;-70
2022/04/15 07:46:16;;;;;;;1.33;0.20;;;;;;;24.92;45.40;102947.34;5032590;28;20029;-71
2022/04/15 07:48:42;;;;;;;0.75;0.10;;;;;;;24.87;46.22;102947.84;5032716;28;20025;-70
2022/04/15 07:51:07;;;;;;;1.48;0.30;;;;;;;24.92;46.89;102961.09;5032740;28;20033;-70
2022/04/15 07:53:32;;;;;;;0.52;0.10;;;;;;;24.93;46.15;102968.34;5032378;28;20053;-72
2022/04/15 07:55:58;;;;;;;1.85;0.10;;;;;;;24.92;45.80;102963.00;5031369;28;20025;-72
2022/04/15 07:58:23;;;;;;;1.23;0.20;;;;;;;24.97;46.74;102966.09;5031152;28;20021;-69
2022/04/15 08:00:49;;;;;;;0.35;0.10;;;;;;;24.92;45.66;102963.00;5032577;28;20409;-70
2022/04/15 08:03:15;;;;;;;0.40;0.10;;;;;;;24.91;46.07;102973.13;5032543;28;20104;-71
2022/04/15 08:05:40;;;;;;;0.35;0.17;;;;;;;24.93;45.13;102976.59;5032199;28;20108;-70
2022/04/15 08:08:06;;;;;;;0.40;0.10;;;;;;;24.96;47.31;102969.88;5037335;28;20064;-67
2022/04/15 08:10:31;;;;;;;1.23;0.28;;;;;;;24.93;45.95;102975.72;5055187;28;20222;-67
2022/04/15 08:12:57;;;;;;;0.65;0.17;;;;;;;24.93;45.99;102983.97;5043989;28;20021;-71
2022/04/15 08:15:22;;;;;;;1.45;0.20;;;;;;;24.93;46.21;102987.59;5032172;28;20072;-71
2022/04/15 08:17:47;;;;;;;0.50;0.00;;;;;;;24.98;46.48;102987.09;5032524;28;20029;-70
2022/04/15 08:20:14;;;;;;;0.95;0.25;;;;;;;24.98;47.15;102989.84;5032366;28;20029;-70
2022/04/15 08:22:39;;;;;;;1.13;0.10;;;;;;;24.96;46.55;102990.00;5031126;28;20143;-71
2022/04/15 08:25:06;;;;;;;0.68;0.10;;;;;;;24.95;46.35;102985.53;5031105;28;20044;-71
2022/04/15 08:27:31;;;;;;;0.98;0.22;;;;;;;24.96;46.13;102986.41;5030888;28;20021;-71
2022/04/15 08:29:56;;;;;;;1.85;0.40;;;;;;;24.96;46.70;102984.50;5032275;28;20033;-71
2022/04/15 08:32:22;;;;;;;1.95;0.20;;;;;;;24.98;44.63;103000.84;5032176;28;20065;-70
2022/04/15 08:34:47;;;;;;;1.23;0.30;;;;;;;24.98;46.03;102989.84;5032247;28;20026;-71
2022/04/15 08:37:13;;;;;;;2.28;0.30;;;;;;;24.99;47.16;103013.59;5030998;28;20132;-71
2022/04/15 08:39:39;;;;;;;0.40;0.10;;;;;;;25.00;46.87;103001.59;5037931;28;20002;-69
2022/04/15 08:42:07;;;;;;;2.53;0.30;;;;;;;25.00;45.08;102987.81;5040359;28;20033;-70
2022/04/15 08:44:32;;;;;;;0.52;0.10;;;;;;;24.99;45.23;102995.19;5032325;28;20480;-70
2022/04/15 08:46:58;;;;;;;1.65;0.40;;;;;;;25.00;46.74;103004.34;5032264;28;20093;-71
2022/04/15 08:49:25;;;;;;;1.17;0.35;;;;;;;25.00;46.18;103004.34;5032010;28;20029;-71
2022/04/15 08:51:50;;;;;;;0.65;0.10;;;;;;;25.01;46.04;102986.78;5040465;28;20125;-69
2022/04/15 08:54:17;;;;;;;1.30;0.10;;;;;;;25.00;45.73;102999.69;5042920;28;20045;-71
2022/04/15 08:56:43;;;;;;;0.80;0.10;;;;;;;25.01;45.63;102993.16;5030803;28;20441;-71
2022/04/15 08:59:09;;;;;;;3.65;0.57;;;;;;;24.99;45.95;102989.69;5031995;28;20507;-70
2022/04/15 09:01:34;;;;;;;2.85;0.50;;;;;;;25.01;45.71;102998.66;5031912;28;20044;-71
2022/04/15 09:04:00;;;;;;;1.48;0.30;;;;;;;25.06;45.33;102998.19;5032149;28;20036;-70
2022/04/15 09:06:32;;;;;;;1.25;0.32;;;;;;;25.03;45.04;103004.03;5031833;28;20448;-71
2022/04/15 09:09:11;;;;;;;1.15;0.52;;;;;;;25.03;45.78;103001.28;5030760;28;20079;-70
2022/04/15 09:11:38;;;;;;;1.02;0.25;;;;;;;25.02;45.66;102996.78;5032181;28;20571;-70
2022/04/15 09:14:14;;;;;;;1.58;0.50;;;;;;;25.07;45.57;102994.41;5031935;28;20439;-71
2022/04/15 09:16:45;;;;;;;2.65;0.60;;;;;;;25.03;45.51;102991.13;5033316;28;20033;-70
2022/04/15 09:19:12;;;;;;;1.48;0.55;;;;;;;25.04;43.74;102981.84;5035456;28;20480;-70
2022/04/15 09:21:39;;;;;;;1.35;0.20;;;;;;;25.06;45.49;102995.44;5034041;28;20033;-71
2022/04/15 09:24:07;;;;;;;1.90;0.40;;;;;;;25.05;44.56;102990.97;5034131;28;20025;-70
2022/04/15 09:26:33;;;;;;;0.85;0.10;;;;;;;25.07;46.24;102992.53;5033922;28;20036;-70
2022/04/15 09:28:58;;;;;;;0.20;0.10;;;;;;;25.02;45.52;102994.88;5035370;28;20025;-70
2022/04/15 09:31:24;;;;;;;0.15;0.05;;;;;;;25.07;46.75;102999.91;5035146;28;20029;-70
2022/04/15 09:33:58;;;;;;;0.13;0.10;;;;;;;25.03;46.12;103004.88;5046906;28;20033;-70
2022/04/15 09:36:35;;;;;;;0.98;0.20;;;;;;;25.03;44.22;103001.28;5040919;28;20155;-67
2022/04/15 09:39:01;;;;;;;0.15;0.10;;;;;;;25.01;45.38;103000.56;5051819;28;20166;-71
2022/04/15 09:41:29;;;;;;;0.75;0.10;;;;;;;25.02;46.56;103002.28;5034961;28;20064;-70
2022/04/15 09:43:59;;;;;;;0.35;0.05;;;;;;;25.03;46.00;103009.53;5035070;28;20029;-70
2022/04/15 09:46:27;;;;;;;0.20;0.00;;;;;;;25.02;43.79;103013.28;5034792;28;20036;-70
2022/04/15 09:49:07;;;;;;;0.80;0.20;;;;;;;25.03;44.96;103004.03;5035018;28;20395;-69
2022/04/15 09:51:44;;;;;;;1.02;0.20;;;;;;;25.02;45.76;103010.53;5034564;28;20063;-69
2022/04/15 09:54:20;;;;;;;0.57;0.10;;;;;;;25.02;45.37;103021.53;5034734;28;20052;-69
2022/04/15 09:56:47;;;;;;;1.08;0.28;;;;;;;25.03;45.93;103009.53;5034828;28;20397;-71
2022/04/15 09:59:15;;;;;;;0.68;0.20;;;;;;;25.03;45.46;103017.78;5034523;28;20366;-72
2022/04/15 10:01:45;;;;;;;1.10;0.10;;;;;;;25.04;45.59;103027.78;5034779;28;20350;-70
2022/04/15 10:04:11;;;;;;;0.73;0.25;;;;;;;25.03;44.63;103020.53;5034618;28;20021;-70
2022/04/15 10:06:39;;;;;;;0.75;0.15;;;;;;;25.02;44.94;103027.03;5039073;28;20024;-67
2022/04/15 10:09:06;;;;;;;0.77;0.10;;;;;;;25.04;44.69;103022.25;5039310;28;20475;-70
2022/04/15 10:11:34;;;;;;;0.30;0.10;;;;;;;25.03;45.75;103032.41;5042412;28;20049;-69
2022/04/15 10:14:01;;;;;;;0.10;0.00;;;;;;;25.04;44.54;103038.78;5034458;28;20029;-70
2022/04/15 10:16:28;;;;;;;0.35;0.00;;;;;;;25.03;44.84;103040.66;5034273;28;20476;-70
2022/04/15 10:18:53;;;;;;;0.10;0.10;;;;;;;25.00;44.99;103040.97;5034406;28;20109;-70
2022/04/15 10:21:19;;;;;;;0.05;0.03;;;;;;;25.03;44.56;103031.56;5034212;28;20104;-71
2022/04/15 10:23:44;;;;;;;0.20;0.00;;;;;;;25.02;45.59;103035.31;5034311;28;20025;-70
2022/04/15 10:26:10;;;;;;;0.55;0.10;;;;;;;25.04;43.24;103025.03;5034174;28;20029;-70
2022/04/15 10:28:44;;;;;;;0.63;0.00;;;;;;;25.04;44.11;103033.28;5033908;28;20022;-71
2022/04/15 10:31:16;;;;;;;0.20;0.05;;;;;;;25.04;45.39;103047.03;5034068;28;20025;-71
2022/04/15 10:33:43;;;;;;;1.73;0.38;;;;;;;25.05;44.01;103035.00;5034094;28;20029;-70
2022/04/15 10:36:11;;;;;;;1.08;0.10;;;;;;;25.06;45.25;103039.47;5033927;28;20476;-70
2022/04/15 10:38:38;;;;;;;1.27;0.10;;;;;;;25.04;45.62;103042.41;5050768;28;20018;-66
2022/04/15 10:41:15;;;;;;;1.08;0.10;;;;;;;25.04;45.74;103041.53;5056089;28;20008;-70
2022/04/15 10:43:55;;;;;;;0.43;0.08;;;;;;;25.07;44.45;103043.94;5034177;28;20054;-70
2022/04/15 10:46:29;;;;;;;2.35;0.20;;;;;;;25.05;45.24;103046.00;5033697;28;20468;-70
2022/04/15 10:48:57;;;;;;;1.08;0.20;;;;;;;25.05;45.89;103046.88;5034121;28;20465;-70
2022/04/15 10:51:31;;;;;;;1.48;0.28;;;;;;;25.06;44.87;103036.72;5044108;28;20061;-70
2022/04/15 10:54:35;;;;;;;1.63;0.10;;;;;;;25.03;45.63;103040.66;5033747;28;20026;-70
2022/04/15 10:57:03;;;;;;;0.17;0.10;;;;;;;25.02;44.58;103047.16;5033633;28;20267;-71
2022/04/15 11:02:21;;;;;;;2.22;0.45;;;;;;;25.06;44.81;103047.72;5033691;28;20511;-70
2022/04/15 11:04:52;;;;;;;1.17;0.17;;;;;;;25.08;45.29;103051.19;5033552;28;20457;-70
2022/04/15 11:07:40;;;;;;;0.20;0.10;;;;;;;25.09;43.35;103050.16;5044378;28;20022;-69
2022/04/15 11:10:16;;;;;;;2.00;0.25;;;;;;;25.05;44.96;103046.00;5038350;28;20044;-71
2022/04/15 11:12:44;;;;;;;0.73;0.20;;;;;;;25.08;44.79;103053.94;5033303;28;20029;-71
2022/04/15 11:15:10;;;;;;;1.77;0.38;;;;;;;25.07;44.39;103055.81;5033231;28;20376;-71
2022/04/15 11:17:38;;;;;;;1.88;0.28;;;;;;;25.09;44.52;103036.38;5033187;28;20033;-70
2022/04/15 11:20:05;;;;;;;2.55;0.40;;;;;;;25.09;43.54;103058.41;5033341;28;20416;-70
2022/04/15 11:22:31;;;;;;;0.98;0.30;;;;;;;25.08;44.92;103037.41;5033003;28;20033;-70
2022/04/15 11:24:56;;;;;;;1.70;0.40;;;;;;;25.09;44.88;103055.66;5033224;28;20037;-70
2022/04/15 11:27:22;;;;;;;0.65;0.20;;;;;;;25.13;45.22;103048.78;5032953;28;20026;-70